sensor_id;sensor_type;location;lat;lon;timestamp;pressure;altitude;pressure_sealevel;temperature;humidity
9525;BME280;15940;48.734;9.112;2023-02-19T00:01:07;97097.09;;;9.11;79.73
9525;BME280;15940;48.734;9.112;2023-02-19T00:03:34;97096.44;;;9.16;79.00
9525;BME280;15940;48.734;9.112;2023-02-19T00:06:02;97090.88;;;9.20;79.08
9525;BME280;15940;48.734;9.112;2023-02-19T00:08:30;97090.28;;;9.15;79.11
9525;BME280;15940;48.734;9.112;2023-02-19T00:11:01;97085.16;;;9.18;78.75
9525;BME280;15940;48.734;9.112;2023-02-19T00:13:29;97087.59;;;9.15;78.67
9525;BME280;15940;48.734;9.112;2023-02-19T00:15:56;97081.72;;;9.17;78.33
9525;BME280;15940;48.734;9.112;2023-02-19T00:18:23;97082.38;;;9.12;78.46
9525;BME280;15940;48.734;9.112;2023-02-19T00:20:50;97077.59;;;9.07;78.64
9525;BME280;15940;48.734;9.112;2023-02-19T00:23:17;97083.59;;;9.11;78.77
9525;BME280;15940;48.734;9.112;2023-02-19T00:25:44;97083.28;;;9.09;78.74
9525;BME280;15940;48.734;9.112;2023-02-19T00:28:12;97077.88;;;9.09;78.79
9525;BME280;15940;48.734;9.112;2023-02-19T00:30:39;97077.13;;;9.08;78.92
9525;BME280;15940;48.734;9.112;2023-02-19T00:33:06;97073.06;;;9.13;78.73
9525;BME280;15940;48.734;9.112;2023-02-19T00:35:34;97078.94;;;9.11;78.34
9525;BME280;15940;48.734;9.112;2023-02-19T00:38:01;97079.09;;;9.08;78.69
9525;BME280;15940;48.734;9.112;2023-02-19T00:40:29;97078.34;;;9.07;78.54
9525;BME280;15940;48.734;9.112;2023-02-19T00:42:56;97073.69;;;9.08;78.86
9525;BME280;15940;48.734;9.112;2023-02-19T00:45:24;97082.53;;;9.08;78.74
9525;BME280;15940;48.734;9.112;2023-02-19T00:47:51;97089.72;;;9.11;78.54
9525;BME280;15940;48.734;9.112;2023-02-19T00:50:18;97095.13;;;9.11;78.79
9525;BME280;15940;48.734;9.112;2023-02-19T00:52:45;97094.09;;;9.09;78.79
9525;BME280;15940;48.734;9.112;2023-02-19T00:55:12;97083.00;;;9.07;78.97
9525;BME280;15940;48.734;9.112;2023-02-19T00:57:39;97099.41;;;9.03;79.25
9525;BME280;15940;48.734;9.112;2023-02-19T01:00:07;97089.69;;;8.97;79.62
9525;BME280;15940;48.734;9.112;2023-02-19T01:02:36;97086.72;;;8.95;79.31
9525;BME280;15940;48.734;9.112;2023-02-19T01:05:03;97068.81;;;8.97;79.38
9525;BME280;15940;48.734;9.112;2023-02-19T01:07:30;97060.44;;;8.95;79.22
9525;BME280;15940;48.734;9.112;2023-02-19T01:09:57;97069.09;;;8.99;79.10
9525;BME280;15940;48.734;9.112;2023-02-19T01:12:24;97064.00;;;9.01;78.89
9525;BME280;15940;48.734;9.112;2023-02-19T01:14:53;97062.78;;;9.02;78.77
9525;BME280;15940;48.734;9.112;2023-02-19T01:17:20;97059.81;;;9.00;78.68
9525;BME280;15940;48.734;9.112;2023-02-19T01:19:49;97048.06;;;9.03;78.32
9525;BME280;15940;48.734;9.112;2023-02-19T01:22:15;97054.09;;;8.98;78.64
9525;BME280;15940;48.734;9.112;2023-02-19T01:24:42;97050.72;;;8.88;78.87
9525;BME280;15940;48.734;9.112;2023-02-19T01:27:09;97049.63;;;8.95;78.54
9525;BME280;15940;48.734;9.112;2023-02-19T01:29:37;97046.94;;;8.95;78.67
9525;BME280;15940;48.734;9.112;2023-02-19T01:32:04;97045.91;;;8.93;78.63
9525;BME280;15940;48.734;9.112;2023-02-19T01:34:30;97045.72;;;8.96;78.66
9525;BME280;15940;48.734;9.112;2023-02-19T01:37:00;97038.19;;;9.00;78.68
9525;BME280;15940;48.734;9.112;2023-02-19T01:39:27;97048.59;;;8.93;79.53
9525;BME280;15940;48.734;9.112;2023-02-19T01:41:54;97038.25;;;8.91;79.58
9525;BME280;15940;48.734;9.112;2023-02-19T01:45:18;97027.16;;;8.89;79.53
9525;BME280;15940;48.734;9.112;2023-02-19T01:48:02;97033.69;;;8.82;79.83
9525;BME280;15940;48.734;9.112;2023-02-19T01:50:36;97042.06;;;8.84;79.83
9525;BME280;15940;48.734;9.112;2023-02-19T01:53:07;97043.56;;;8.85;79.91
9525;BME280;15940;48.734;9.112;2023-02-19T01:55:38;97048.22;;;8.85;79.46
9525;BME280;15940;48.734;9.112;2023-02-19T01:58:07;97052.00;;;8.78;79.51
9525;BME280;15940;48.734;9.112;2023-02-19T02:00:35;97043.16;;;8.78;79.80
9525;BME280;15940;48.734;9.112;2023-02-19T02:03:03;97047.47;;;8.84;79.68
9525;BME280;15940;48.734;9.112;2023-02-19T02:05:46;97039.84;;;8.83;79.54
9525;BME280;15940;48.734;9.112;2023-02-19T02:08:17;97026.66;;;8.76;79.87
9525;BME280;15940;48.734;9.112;2023-02-19T02:11:03;97031.78;;;8.74;80.03
9525;BME280;15940;48.734;9.112;2023-02-19T02:13:32;97041.66;;;8.77;79.90
9525;BME280;15940;48.734;9.112;2023-02-19T02:16:13;97040.19;;;8.76;79.94
9525;BME280;15940;48.734;9.112;2023-02-19T02:18:56;97030.31;;;8.73;79.82
9525;BME280;15940;48.734;9.112;2023-02-19T02:21:56;97036.63;;;8.70;79.98
9525;BME280;15940;48.734;9.112;2023-02-19T02:24:49;97031.41;;;8.66;80.53
9525;BME280;15940;48.734;9.112;2023-02-19T02:27:40;97023.03;;;8.64;80.39
9525;BME280;15940;48.734;9.112;2023-02-19T02:30:24;97023.66;;;8.59;80.36
9525;BME280;15940;48.734;9.112;2023-02-19T02:32:59;97021.63;;;8.69;80.42
9525;BME280;15940;48.734;9.112;2023-02-19T02:35:33;97014.19;;;8.64;80.76
9525;BME280;15940;48.734;9.112;2023-02-19T02:38:05;97010.72;;;8.63;80.82
9525;BME280;15940;48.734;9.112;2023-02-19T02:40:34;97010.72;;;8.63;81.02
9525;BME280;15940;48.734;9.112;2023-02-19T02:43:01;96999.81;;;8.57;81.28
9525;BME280;15940;48.734;9.112;2023-02-19T02:45:31;97001.03;;;8.56;81.59
9525;BME280;15940;48.734;9.112;2023-02-19T02:48:11;97004.94;;;8.55;81.10
9525;BME280;15940;48.734;9.112;2023-02-19T02:50:43;96994.59;;;8.54;81.34
9525;BME280;15940;48.734;9.112;2023-02-19T02:53:15;96998.50;;;8.53;81.51
9525;BME280;15940;48.734;9.112;2023-02-19T02:56:01;97000.00;;;8.54;81.57
9525;BME280;15940;48.734;9.112;2023-02-19T02:58:30;96987.41;;;8.51;81.52
9525;BME280;15940;48.734;9.112;2023-02-19T03:01:03;96999.88;;;8.48;81.30
9525;BME280;15940;48.734;9.112;2023-02-19T03:03:56;97006.03;;;8.49;81.37
9525;BME280;15940;48.734;9.112;2023-02-19T03:06:27;97000.34;;;8.47;81.51
9525;BME280;15940;48.734;9.112;2023-02-19T03:08:59;96999.41;;;8.50;81.50
9525;BME280;15940;48.734;9.112;2023-02-19T03:11:28;96998.19;;;8.51;81.40
9525;BME280;15940;48.734;9.112;2023-02-19T03:14:18;97006.94;;;8.46;81.53
9525;BME280;15940;48.734;9.112;2023-02-19T03:17:09;96995.88;;;8.44;82.56
9525;BME280;15940;48.734;9.112;2023-02-19T03:19:56;96999.66;;;8.37;83.46
9525;BME280;15940;48.734;9.112;2023-02-19T03:22:26;96996.34;;;8.33;84.11
9525;BME280;15940;48.734;9.112;2023-02-19T03:24:59;96994.91;;;8.23;84.98
9525;BME280;15940;48.734;9.112;2023-02-19T03:27:45;96992.13;;;8.17;85.75
9525;BME280;15940;48.734;9.112;2023-02-19T03:30:17;96990.97;;;8.09;85.84
9525;BME280;15940;48.734;9.112;2023-02-19T03:32:50;96984.22;;;8.05;86.24
9525;BME280;15940;48.734;9.112;2023-02-19T03:35:23;96995.94;;;8.01;86.24
9525;BME280;15940;48.734;9.112;2023-02-19T03:37:58;96992.22;;;7.99;86.71
9525;BME280;15940;48.734;9.112;2023-02-19T03:40:29;96998.81;;;7.98;86.75
9525;BME280;15940;48.734;9.112;2023-02-19T03:43:02;96993.72;;;8.00;86.74
9525;BME280;15940;48.734;9.112;2023-02-19T03:45:43;96984.72;;;7.94;87.05
9525;BME280;15940;48.734;9.112;2023-02-19T03:48:32;96989.56;;;7.90;87.15
9525;BME280;15940;48.734;9.112;2023-02-19T03:51:11;96987.38;;;7.79;87.66
9525;BME280;15940;48.734;9.112;2023-02-19T03:53:51;96993.50;;;7.80;87.95
9525;BME280;15940;48.734;9.112;2023-02-19T03:56:25;97002.06;;;7.78;88.19
9525;BME280;15940;48.734;9.112;2023-02-19T03:58:59;97010.16;;;7.78;88.61
9525;BME280;15940;48.734;9.112;2023-02-19T04:01:32;97001.31;;;7.78;88.35
9525;BME280;15940;48.734;9.112;2023-02-19T04:04:22;97001.19;;;7.72;88.22
9525;BME280;15940;48.734;9.112;2023-02-19T04:06:54;96999.41;;;7.69;88.53
9525;BME280;15940;48.734;9.112;2023-02-19T04:09:24;97007.50;;;7.69;88.59
9525;BME280;15940;48.734;9.112;2023-02-19T04:11:53;97008.06;;;7.73;88.45
9525;BME280;15940;48.734;9.112;2023-02-19T04:14:25;97010.00;;;7.72;88.09
9525;BME280;15940;48.734;9.112;2023-02-19T04:16:58;97010.75;;;7.73;88.19
9525;BME280;15940;48.734;9.112;2023-02-19T04:19:31;97016.00;;;7.67;88.54
9525;BME280;15940;48.734;9.112;2023-02-19T04:22:00;97022.59;;;7.66;88.35
9525;BME280;15940;48.734;9.112;2023-02-19T04:24:32;97022.91;;;7.68;88.27
9525;BME280;15940;48.734;9.112;2023-02-19T04:27:01;97024.88;;;7.68;88.53
9525;BME280;15940;48.734;9.112;2023-02-19T04:29:29;97030.41;;;7.64;88.40
9525;BME280;15940;48.734;9.112;2023-02-19T04:31:56;97029.38;;;7.62;88.86
9525;BME280;15940;48.734;9.112;2023-02-19T04:34:22;97036.41;;;7.68;88.36
9525;BME280;15940;48.734;9.112;2023-02-19T04:36:51;97034.31;;;7.63;88.72
9525;BME280;15940;48.734;9.112;2023-02-19T04:39:18;97040.44;;;7.64;88.57
9525;BME280;15940;48.734;9.112;2023-02-19T04:41:45;97049.00;;;7.62;88.77
9525;BME280;15940;48.734;9.112;2023-02-19T04:44:11;97040.91;;;7.62;88.38
9525;BME280;15940;48.734;9.112;2023-02-19T04:46:39;97046.75;;;7.61;88.34
9525;BME280;15940;48.734;9.112;2023-02-19T04:49:06;97039.56;;;7.58;88.68
9525;BME280;15940;48.734;9.112;2023-02-19T04:51:33;97044.53;;;7.59;88.75
9525;BME280;15940;48.734;9.112;2023-02-19T04:54:01;97046.47;;;7.59;88.27
9525;BME280;15940;48.734;9.112;2023-02-19T04:56:28;97056.06;;;7.60;88.51
9525;BME280;15940;48.734;9.112;2023-02-19T04:58:55;97058.88;;;7.56;88.44
9525;BME280;15940;48.734;9.112;2023-02-19T05:01:22;97050.06;;;7.56;88.52
9525;BME280;15940;48.734;9.112;2023-02-19T05:03:50;97066.84;;;7.60;88.31
9525;BME280;15940;48.734;9.112;2023-02-19T05:06:17;97060.09;;;7.55;87.69
9525;BME280;15940;48.734;9.112;2023-02-19T05:08:44;97056.78;;;7.60;87.89
9525;BME280;15940;48.734;9.112;2023-02-19T05:11:12;97060.25;;;7.61;88.17
9525;BME280;15940;48.734;9.112;2023-02-19T05:13:40;97054.69;;;7.55;87.55
9525;BME280;15940;48.734;9.112;2023-02-19T05:16:10;97059.63;;;7.57;87.88
9525;BME280;15940;48.734;9.112;2023-02-19T05:18:39;97056.19;;;7.56;87.63
9525;BME280;15940;48.734;9.112;2023-02-19T05:21:06;97076.41;;;7.61;87.65
9525;BME280;15940;48.734;9.112;2023-02-19T05:23:33;97076.41;;;7.61;87.34
9525;BME280;15940;48.734;9.112;2023-02-19T05:26:04;97083.28;;;7.62;87.23
9525;BME280;15940;48.734;9.112;2023-02-19T05:28:33;97064.59;;;7.58;87.27
9525;BME280;15940;48.734;9.112;2023-02-19T05:31:05;97076.41;;;7.61;87.32
9525;BME280;15940;48.734;9.112;2023-02-19T05:33:32;97071.31;;;7.63;87.30
9525;BME280;15940;48.734;9.112;2023-02-19T05:36:05;97071.31;;;7.63;87.11
9525;BME280;15940;48.734;9.112;2023-02-19T05:38:32;97079.41;;;7.63;87.00
9525;BME280;15940;48.734;9.112;2023-02-19T05:41:07;97082.84;;;7.63;86.67
9525;BME280;15940;48.734;9.112;2023-02-19T05:43:36;97080.88;;;7.64;86.94
9525;BME280;15940;48.734;9.112;2023-02-19T05:46:04;97089.72;;;7.64;86.18
9525;BME280;15940;48.734;9.112;2023-02-19T05:48:31;97087.47;;;7.63;86.33
9525;BME280;15940;48.734;9.112;2023-02-19T05:51:01;97070.41;;;7.57;86.59
9525;BME280;15940;48.734;9.112;2023-02-19T05:53:29;97094.06;;;7.62;85.75
9525;BME280;15940;48.734;9.112;2023-02-19T05:55:56;97089.59;;;7.59;85.77
9525;BME280;15940;48.734;9.112;2023-02-19T05:58:23;97090.19;;;7.63;85.42
9525;BME280;15940;48.734;9.112;2023-02-19T06:00:52;97094.06;;;7.62;85.29
9525;BME280;15940;48.734;9.112;2023-02-19T06:03:20;97094.69;;;7.57;85.34
9525;BME280;15940;48.734;9.112;2023-02-19T06:05:47;97101.28;;;7.56;85.16
9525;BME280;15940;48.734;9.112;2023-02-19T06:08:15;97116.09;;;7.60;85.30
9525;BME280;15940;48.734;9.112;2023-02-19T06:10:42;97114.16;;;7.61;84.51
9525;BME280;15940;48.734;9.112;2023-02-19T06:13:09;97117.75;;;7.58;84.76
9525;BME280;15940;48.734;9.112;2023-02-19T06:15:37;97121.34;;;7.55;85.34
9525;BME280;15940;48.734;9.112;2023-02-19T06:18:05;97135.44;;;7.50;86.23
9525;BME280;15940;48.734;9.112;2023-02-19T06:20:32;97139.63;;;7.41;86.70
9525;BME280;15940;48.734;9.112;2023-02-19T06:22:59;97140.69;;;7.35;86.73
9525;BME280;15940;48.734;9.112;2023-02-19T06:25:26;97140.09;;;7.31;87.28
9525;BME280;15940;48.734;9.112;2023-02-19T06:27:53;97145.47;;;7.31;86.36
9525;BME280;15940;48.734;9.112;2023-02-19T06:30:20;97149.38;;;7.30;86.75
9525;BME280;15940;48.734;9.112;2023-02-19T06:32:46;97149.22;;;7.24;86.82
9525;BME280;15940;48.734;9.112;2023-02-19T06:35:15;97153.13;;;7.23;86.29
9525;BME280;15940;48.734;9.112;2023-02-19T06:37:42;97161.34;;;7.20;86.46
9525;BME280;15940;48.734;9.112;2023-02-19T06:40:11;97150.25;;;7.18;86.73
9525;BME280;15940;48.734;9.112;2023-02-19T06:42:38;97150.13;;;7.21;85.94
9525;BME280;15940;48.734;9.112;2023-02-19T06:45:06;97156.41;;;7.18;84.60
9525;BME280;15940;48.734;9.112;2023-02-19T06:47:33;97170.59;;;7.19;84.40
9525;BME280;15940;48.734;9.112;2023-02-19T06:50:00;97168.53;;;7.23;84.30
9525;BME280;15940;48.734;9.112;2023-02-19T06:52:28;97171.97;;;7.23;83.33
9525;BME280;15940;48.734;9.112;2023-02-19T06:54:55;97182.47;;;7.21;83.59
9525;BME280;15940;48.734;9.112;2023-02-19T06:57:22;97189.63;;;7.24;82.29
9525;BME280;15940;48.734;9.112;2023-02-19T06:59:49;97192.78;;;7.32;82.35
9525;BME280;15940;48.734;9.112;2023-02-19T07:02:16;97195.47;;;7.32;81.79
9525;BME280;15940;48.734;9.112;2023-02-19T07:04:43;97196.97;;;7.33;82.02
9525;BME280;15940;48.734;9.112;2023-02-19T07:07:10;97199.22;;;7.34;81.80
9525;BME280;15940;48.734;9.112;2023-02-19T07:09:38;97197.28;;;7.35;81.98
9525;BME280;15940;48.734;9.112;2023-02-19T07:12:06;97197.28;;;7.35;81.15
9525;BME280;15940;48.734;9.112;2023-02-19T07:14:33;97204.16;;;7.36;81.36
9525;BME280;15940;48.734;9.112;2023-02-19T07:16:59;97206.84;;;7.36;81.62
9525;BME280;15940;48.734;9.112;2023-02-19T07:19:26;97209.72;;;7.41;81.38
9525;BME280;15940;48.734;9.112;2023-02-19T07:21:53;97208.22;;;7.40;81.78
9525;BME280;15940;48.734;9.112;2023-02-19T07:24:20;97219.41;;;7.39;81.89
9525;BME280;15940;48.734;9.112;2023-02-19T07:26:48;97223.31;;;7.38;81.21
9525;BME280;15940;48.734;9.112;2023-02-19T07:29:16;97224.81;;;7.39;81.44
9525;BME280;15940;48.734;9.112;2023-02-19T07:31:43;97224.81;;;7.39;81.16
9525;BME280;15940;48.734;9.112;2023-02-19T07:34:10;97231.88;;;7.45;81.31
9525;BME280;15940;48.734;9.112;2023-02-19T07:36:36;97234.44;;;7.49;80.18
9525;BME280;15940;48.734;9.112;2023-02-19T07:39:03;97232.03;;;7.51;80.56
9525;BME280;15940;48.734;9.112;2023-02-19T07:41:30;97238.00;;;7.55;79.68
9525;BME280;15940;48.734;9.112;2023-02-19T07:43:59;97234.56;;;7.55;80.16
9525;BME280;15940;48.734;9.112;2023-02-19T07:46:26;97237.13;;;7.58;79.95
9525;BME280;15940;48.734;9.112;2023-02-19T07:48:54;97225.44;;;7.61;79.81
9525;BME280;15940;48.734;9.112;2023-02-19T07:51:21;97224.41;;;7.68;79.59
9525;BME280;15940;48.734;9.112;2023-02-19T07:53:49;97217.78;;;7.78;78.58
9525;BME280;15940;48.734;9.112;2023-02-19T07:56:17;97223.78;;;7.82;78.05
9525;BME280;15940;48.734;9.112;2023-02-19T07:58:44;97214.34;;;7.87;76.99
9525;BME280;15940;48.734;9.112;2023-02-19T08:01:16;97221.97;;;7.88;77.74
9525;BME280;15940;48.734;9.112;2023-02-19T08:03:44;97212.50;;;7.93;77.80
9525;BME280;15940;48.734;9.112;2023-02-19T08:06:11;97213.41;;;7.99;77.24
9525;BME280;15940;48.734;9.112;2023-02-19T08:08:39;97218.34;;;8.10;76.88
9525;BME280;15940;48.734;9.112;2023-02-19T08:11:06;97225.38;;;8.16;76.55
9525;BME280;15940;48.734;9.112;2023-02-19T08:13:51;97231.06;;;8.18;76.32
9525;BME280;15940;48.734;9.112;2023-02-19T08:16:20;97229.84;;;8.19;76.31
9525;BME280;15940;48.734;9.112;2023-02-19T08:18:49;97234.03;;;8.20;74.64
9525;BME280;15940;48.734;9.112;2023-02-19T08:21:17;97233.88;;;8.24;75.00
9525;BME280;15940;48.734;9.112;2023-02-19T08:23:45;97250.25;;;8.20;74.36
9525;BME280;15940;48.734;9.112;2023-02-19T08:26:12;97249.94;;;8.18;75.24
9525;BME280;15940;48.734;9.112;2023-02-19T08:28:39;97249.22;;;8.18;75.04
9525;BME280;15940;48.734;9.112;2023-02-19T08:31:08;97255.19;;;8.13;75.87
9525;BME280;15940;48.734;9.112;2023-02-19T08:33:38;97255.81;;;8.08;76.76
9525;BME280;15940;48.734;9.112;2023-02-19T08:36:09;97260.00;;;8.18;77.52
9525;BME280;15940;48.734;9.112;2023-02-19T08:38:36;97256.69;;;8.23;77.09
9525;BME280;15940;48.734;9.112;2023-02-19T08:41:05;97258.94;;;8.24;77.10
9525;BME280;15940;48.734;9.112;2023-02-19T08:43:33;97262.97;;;8.20;77.53
9525;BME280;15940;48.734;9.112;2023-02-19T08:45:59;97271.66;;;8.24;77.53
9525;BME280;15940;48.734;9.112;2023-02-19T08:48:27;97265.38;;;8.36;77.17
9525;BME280;15940;48.734;9.112;2023-02-19T08:50:57;97268.66;;;8.40;76.71
9525;BME280;15940;48.734;9.112;2023-02-19T08:53:25;97265.97;;;8.40;76.68
9525;BME280;15940;48.734;9.112;2023-02-19T08:55:53;97264.47;;;8.30;76.05
9525;BME280;15940;48.734;9.112;2023-02-19T08:58:20;97273.31;;;8.30;76.73
9525;BME280;15940;48.734;9.112;2023-02-19T09:00:48;97275.44;;;8.26;76.86
9525;BME280;15940;48.734;9.112;2023-02-19T09:03:15;97284.56;;;8.20;75.92
9525;BME280;15940;48.734;9.112;2023-02-19T09:05:41;97276.63;;;8.25;76.33
9525;BME280;15940;48.734;9.112;2023-02-19T09:08:10;97278.56;;;8.34;76.03
9525;BME280;15940;48.734;9.112;2023-02-19T09:10:37;97282.16;;;8.40;75.69
9525;BME280;15940;48.734;9.112;2023-02-19T09:13:04;97293.69;;;8.50;75.23
9525;BME280;15940;48.734;9.112;2023-02-19T09:15:31;97296.69;;;8.52;73.72
9525;BME280;15940;48.734;9.112;2023-02-19T09:17:58;97304.78;;;8.43;72.42
9525;BME280;15940;48.734;9.112;2023-02-19T09:20:25;97314.41;;;8.53;73.19
9525;BME280;15940;48.734;9.112;2023-02-19T09:22:56;97330.44;;;8.56;72.57
9525;BME280;15940;48.734;9.112;2023-02-19T09:25:25;97320.09;;;8.55;73.44
9525;BME280;15940;48.734;9.112;2023-02-19T09:27:55;97317.66;;;8.66;73.07
9525;BME280;15940;48.734;9.112;2023-02-19T09:30:23;97334.63;;;8.57;72.85
9525;BME280;15940;48.734;9.112;2023-02-19T09:32:50;97325.34;;;8.49;71.55
9525;BME280;15940;48.734;9.112;2023-02-19T09:35:17;97318.59;;;8.54;70.85
9525;BME280;15940;48.734;9.112;2023-02-19T09:37:44;97327.81;;;8.71;71.12
9525;BME280;15940;48.734;9.112;2023-02-19T09:40:11;97319.41;;;8.78;70.89
9525;BME280;15940;48.734;9.112;2023-02-19T09:42:42;97323.28;;;8.86;71.52
9525;BME280;15940;48.734;9.112;2023-02-19T09:45:18;97322.94;;;9.03;69.90
9525;BME280;15940;48.734;9.112;2023-02-19T09:47:47;97324.88;;;9.02;70.14
9525;BME280;15940;48.734;9.112;2023-02-19T09:50:18;97322.28;;;9.08;69.41
9525;BME280;15940;48.734;9.112;2023-02-19T09:52:50;97329.94;;;9.09;68.43
9525;BME280;15940;48.734;9.112;2023-02-19T09:55:28;97353.38;;;9.12;67.50
9525;BME280;15940;48.734;9.112;2023-02-19T09:57:59;97357.44;;;9.08;67.80
9525;BME280;15940;48.734;9.112;2023-02-19T10:00:30;97353.84;;;9.11;68.67
9525;BME280;15940;48.734;9.112;2023-02-19T10:03:05;97352.59;;;9.21;67.75
9525;BME280;15940;48.734;9.112;2023-02-19T10:05:32;97348.78;;;9.28;67.07
9525;BME280;15940;48.734;9.112;2023-02-19T10:08:01;97351.06;;;9.29;66.87
9525;BME280;15940;48.734;9.112;2023-02-19T10:10:32;97356.75;;;9.31;67.55
9525;BME280;15940;48.734;9.112;2023-02-19T10:13:17;97351.38;;;9.22;68.96
9525;BME280;15940;48.734;9.112;2023-02-19T10:15:47;97349.47;;;9.13;68.01
9525;BME280;15940;48.734;9.112;2023-02-19T10:18:19;97352.00;;;9.17;69.12
9525;BME280;15940;48.734;9.112;2023-02-19T10:20:49;97347.66;;;9.20;68.97
9525;BME280;15940;48.734;9.112;2023-02-19T10:23:17;97344.75;;;9.23;68.89
9525;BME280;15940;48.734;9.112;2023-02-19T10:25:48;97350.13;;;9.32;68.74
9525;BME280;15940;48.734;9.112;2023-02-19T10:28:20;97345.75;;;9.35;68.45
9525;BME280;15940;48.734;9.112;2023-02-19T10:30:53;97344.34;;;9.49;68.47
9525;BME280;15940;48.734;9.112;2023-02-19T10:33:22;97346.06;;;9.61;68.88
9525;BME280;15940;48.734;9.112;2023-02-19T10:35:55;97339.63;;;9.58;67.35
9525;BME280;15940;48.734;9.112;2023-02-19T10:38:27;97350.44;;;9.82;67.61
9525;BME280;15940;48.734;9.112;2023-02-19T10:41:02;97345.31;;;9.84;67.36
9525;BME280;15940;48.734;9.112;2023-02-19T10:43:35;97362.25;;;9.70;67.68
9525;BME280;15940;48.734;9.112;2023-02-19T10:46:07;97367.44;;;9.59;66.97
9525;BME280;15940;48.734;9.112;2023-02-19T10:48:46;97374.47;;;9.56;68.47
9525;BME280;15940;48.734;9.112;2023-02-19T10:51:15;97373.78;;;9.47;67.99
9525;BME280;15940;48.734;9.112;2023-02-19T10:53:48;97377.13;;;9.41;66.66
9525;BME280;15940;48.734;9.112;2023-02-19T10:56:23;97384.50;;;9.41;68.23
9525;BME280;15940;48.734;9.112;2023-02-19T10:58:51;97385.47;;;9.53;67.67
9525;BME280;15940;48.734;9.112;2023-02-19T11:01:20;97382.91;;;9.58;66.62
9525;BME280;15940;48.734;9.112;2023-02-19T11:03:50;97384.03;;;9.66;67.10
9525;BME280;15940;48.734;9.112;2023-02-19T11:06:20;97385.84;;;9.69;66.65
9525;BME280;15940;48.734;9.112;2023-02-19T11:08:54;97386.88;;;9.72;65.39
9525;BME280;15940;48.734;9.112;2023-02-19T11:11:33;97376.66;;;9.76;66.44
9525;BME280;15940;48.734;9.112;2023-02-19T11:14:04;97372.94;;;9.88;64.96
9525;BME280;15940;48.734;9.112;2023-02-19T11:16:41;97357.47;;;9.89;64.31
9525;BME280;15940;48.734;9.112;2023-02-19T11:19:30;97367.28;;;10.01;64.35
9525;BME280;15940;48.734;9.112;2023-02-19T11:22:00;97371.16;;;9.85;64.28
9525;BME280;15940;48.734;9.112;2023-02-19T11:24:33;97375.31;;;9.95;64.49
9525;BME280;15940;48.734;9.112;2023-02-19T11:27:04;97384.41;;;10.07;64.35
9525;BME280;15940;48.734;9.112;2023-02-19T11:29:34;97379.72;;;10.08;63.45
9525;BME280;15940;48.734;9.112;2023-02-19T11:32:24;97387.97;;;9.89;64.07
9525;BME280;15940;48.734;9.112;2023-02-19T11:35:12;97374.31;;;9.84;64.61
9525;BME280;15940;48.734;9.112;2023-02-19T11:37:53;97364.16;;;9.79;64.00
9525;BME280;15940;48.734;9.112;2023-02-19T11:40:31;97379.06;;;9.98;64.00
9525;BME280;15940;48.734;9.112;2023-02-19T11:43:13;97367.34;;;9.92;65.29
9525;BME280;15940;48.734;9.112;2023-02-19T11:45:51;97372.94;;;9.88;64.72
9525;BME280;15940;48.734;9.112;2023-02-19T11:48:44;97373.47;;;9.78;65.71
9525;BME280;15940;48.734;9.112;2023-02-19T11:54:43;97381.22;;;9.85;64.69
9525;BME280;15940;48.734;9.112;2023-02-19T11:57:25;97381.91;;;9.94;64.06
9525;BME280;15940;48.734;9.112;2023-02-19T12:00:11;97382.59;;;10.04;64.47
9525;BME280;15940;48.734;9.112;2023-02-19T12:03:16;97396.38;;;10.15;63.12
9525;BME280;15940;48.734;9.112;2023-02-19T12:05:58;97398.50;;;10.11;64.80
9525;BME280;15940;48.734;9.112;2023-02-19T12:11:53;97416.75;;;10.01;63.58
9525;BME280;15940;48.734;9.112;2023-02-19T12:14:57;97401.75;;;9.77;63.98
9525;BME280;15940;48.734;9.112;2023-02-19T12:17:58;97404.59;;;9.73;64.85
9525;BME280;15940;48.734;9.112;2023-02-19T12:20:33;97389.94;;;9.89;65.11
9525;BME280;15940;48.734;9.112;2023-02-19T12:23:36;97389.53;;;10.05;62.93
9525;BME280;15940;48.734;9.112;2023-02-19T12:26:21;97369.94;;;10.10;64.78
9525;BME280;15940;48.734;9.112;2023-02-19T12:29:14;97369.66;;;10.08;63.24
9525;BME280;15940;48.734;9.112;2023-02-19T12:32:07;97357.50;;;10.03;62.47
9525;BME280;15940;48.734;9.112;2023-02-19T12:35:18;97356.28;;;10.28;63.25
9525;BME280;15940;48.734;9.112;2023-02-19T12:37:54;97354.06;;;10.56;61.73
9525;BME280;15940;48.734;9.112;2023-02-19T12:40:40;97353.97;;;10.66;61.66
9525;BME280;15940;48.734;9.112;2023-02-19T12:43:17;97363.78;;;10.93;60.34
9525;BME280;15940;48.734;9.112;2023-02-19T12:45:48;97369.97;;;10.93;59.67
9525;BME280;15940;48.734;9.112;2023-02-19T12:48:27;97369.69;;;10.76;61.30
9525;BME280;15940;48.734;9.112;2023-02-19T12:51:04;97381.53;;;10.64;61.45
9525;BME280;15940;48.734;9.112;2023-02-19T12:53:40;97381.19;;;10.71;60.95
9525;BME280;15940;48.734;9.112;2023-02-19T12:56:16;97367.34;;;10.84;61.10
9525;BME280;15940;48.734;9.112;2023-02-19T12:58:48;97350.06;;;10.67;61.42
9525;BME280;15940;48.734;9.112;2023-02-19T13:01:21;97353.44;;;10.62;61.73
9525;BME280;15940;48.734;9.112;2023-02-19T13:04:04;97375.44;;;10.99;61.02
9525;BME280;15940;48.734;9.112;2023-02-19T13:06:40;97372.38;;;11.21;59.38
9525;BME280;15940;48.734;9.112;2023-02-19T13:09:12;97366.56;;;11.28;60.70
9525;BME280;15940;48.734;9.112;2023-02-19T13:11:43;97357.69;;;11.12;59.78
9525;BME280;15940;48.734;9.112;2023-02-19T13:14:18;97382.41;;;11.00;59.19
9525;BME280;15940;48.734;9.112;2023-02-19T13:16:51;97364.84;;;10.80;60.70
9525;BME280;15940;48.734;9.112;2023-02-19T13:19:21;97368.16;;;10.46;61.96
9525;BME280;15940;48.734;9.112;2023-02-19T13:21:55;97365.84;;;10.53;61.02
9525;BME280;15940;48.734;9.112;2023-02-19T13:24:42;97365.09;;;10.68;60.48
9525;BME280;15940;48.734;9.112;2023-02-19T13:27:37;97361.47;;;10.71;59.74
9525;BME280;15940;48.734;9.112;2023-02-19T13:33:29;97362.63;;;10.40;61.08
9525;BME280;15940;48.734;9.112;2023-02-19T13:36:09;97368.97;;;10.22;61.66
9525;BME280;15940;48.734;9.112;2023-02-19T13:38:41;97369.25;;;10.00;62.35
9525;BME280;15940;48.734;9.112;2023-02-19T13:41:25;97367.00;;;9.75;63.12
9525;BME280;15940;48.734;9.112;2023-02-19T13:44:00;97364.13;;;9.55;63.13
9525;BME280;15940;48.734;9.112;2023-02-19T13:46:40;97362.81;;;9.50;63.76
9525;BME280;15940;48.734;9.112;2023-02-19T13:49:47;97361.72;;;9.57;62.91
9525;BME280;15940;48.734;9.112;2023-02-19T13:52:41;97358.38;;;9.62;63.73
9525;BME280;15940;48.734;9.112;2023-02-19T13:55:51;97352.91;;;9.71;63.99
9525;BME280;15940;48.734;9.112;2023-02-19T13:58:53;97345.38;;;9.75;63.64